sensor_id;sensor_type;location;lat;lon;timestamp;temperature;humidity
38436;DHT22;24220;48.168;14.024;2023-07-09T00:02:14;26.10;53.90
38436;DHT22;24220;48.168;14.024;2023-07-09T00:04:43;26.10;54.00
38436;DHT22;24220;48.168;14.024;2023-07-09T00:07:31;26.10;54.10
38436;DHT22;24220;48.168;14.024;2023-07-09T00:09:59;26.10;54.00
38436;DHT22;24220;48.168;14.024;2023-07-09T00:12:27;26.00;53.70
38436;DHT22;24220;48.168;14.024;2023-07-09T00:14:58;25.90;53.80
38436;DHT22;24220;48.168;14.024;2023-07-09T00:17:34;25.90;54.00
38436;DHT22;24220;48.168;14.024;2023-07-09T00:20:07;25.80;54.20
38436;DHT22;24220;48.168;14.024;2023-07-09T00:22:44;25.80;54.10
38436;DHT22;24220;48.168;14.024;2023-07-09T00:25:20;25.80;54.30
38436;DHT22;24220;48.168;14.024;2023-07-09T00:27:48;25.80;54.20
38436;DHT22;24220;48.168;14.024;2023-07-09T00:30:21;25.70;54.30
38436;DHT22;24220;48.168;14.024;2023-07-09T00:32:52;25.70;54.70
38436;DHT22;24220;48.168;14.024;2023-07-09T00:35:20;25.70;54.70
38436;DHT22;24220;48.168;14.024;2023-07-09T00:37:52;25.70;54.70
38436;DHT22;24220;48.168;14.024;2023-07-09T00:40:22;25.70;54.80
38436;DHT22;24220;48.168;14.024;2023-07-09T00:42:53;25.70;54.90
38436;DHT22;24220;48.168;14.024;2023-07-09T00:45:26;25.60;55.00
38436;DHT22;24220;48.168;14.024;2023-07-09T00:47:59;25.60;55.00
38436;DHT22;24220;48.168;14.024;2023-07-09T00:50:49;25.60;54.90
38436;DHT22;24220;48.168;14.024;2023-07-09T00:53:25;25.60;54.90
38436;DHT22;24220;48.168;14.024;2023-07-09T00:56:05;25.60;55.00
38436;DHT22;24220;48.168;14.024;2023-07-09T00:58:42;25.50;55.00
38436;DHT22;24220;48.168;14.024;2023-07-09T01:01:19;25.50;55.30
38436;DHT22;24220;48.168;14.024;2023-07-09T01:03:59;25.50;55.80
38436;DHT22;24220;48.168;14.024;2023-07-09T01:06:43;25.40;55.50
38436;DHT22;24220;48.168;14.024;2023-07-09T01:09:11;25.40;55.60
38436;DHT22;24220;48.168;14.024;2023-07-09T01:11:39;25.40;55.40
38436;DHT22;24220;48.168;14.024;2023-07-09T01:14:13;25.40;55.50
38436;DHT22;24220;48.168;14.024;2023-07-09T01:16:50;25.30;55.70
38436;DHT22;24220;48.168;14.024;2023-07-09T01:19:26;25.30;55.70
38436;DHT22;24220;48.168;14.024;2023-07-09T01:21:57;25.20;55.70
38436;DHT22;24220;48.168;14.024;2023-07-09T01:24:50;25.20;55.70
38436;DHT22;24220;48.168;14.024;2023-07-09T01:27:25;25.10;55.70
38436;DHT22;24220;48.168;14.024;2023-07-09T01:29:55;25.20;55.90
38436;DHT22;24220;48.168;14.024;2023-07-09T01:32:25;25.10;56.10
38436;DHT22;24220;48.168;14.024;2023-07-09T01:34:55;25.00;56.10
38436;DHT22;24220;48.168;14.024;2023-07-09T01:37:25;25.00;56.20
38436;DHT22;24220;48.168;14.024;2023-07-09T01:39:53;24.90;56.50
38436;DHT22;24220;48.168;14.024;2023-07-09T01:42:24;24.90;56.30
38436;DHT22;24220;48.168;14.024;2023-07-09T01:44:52;24.90;56.00
38436;DHT22;24220;48.168;14.024;2023-07-09T01:47:21;24.80;56.20
38436;DHT22;24220;48.168;14.024;2023-07-09T01:49:54;24.80;56.20
38436;DHT22;24220;48.168;14.024;2023-07-09T01:52:27;24.80;56.30
38436;DHT22;24220;48.168;14.024;2023-07-09T01:54:58;24.70;56.20
38436;DHT22;24220;48.168;14.024;2023-07-09T01:57:30;24.70;56.20
38436;DHT22;24220;48.168;14.024;2023-07-09T02:00:07;24.70;56.30
38436;DHT22;24220;48.168;14.024;2023-07-09T02:02:38;24.60;56.50
38436;DHT22;24220;48.168;14.024;2023-07-09T02:05:12;24.60;56.50
38436;DHT22;24220;48.168;14.024;2023-07-09T02:07:40;24.60;56.70
38436;DHT22;24220;48.168;14.024;2023-07-09T02:10:08;24.60;56.80
38436;DHT22;24220;48.168;14.024;2023-07-09T02:12:40;24.60;57.00
38436;DHT22;24220;48.168;14.024;2023-07-09T02:15:08;24.50;57.20
38436;DHT22;24220;48.168;14.024;2023-07-09T02:17:35;24.50;57.30
38436;DHT22;24220;48.168;14.024;2023-07-09T02:20:06;24.50;57.30
38436;DHT22;24220;48.168;14.024;2023-07-09T02:22:35;24.40;57.30
38436;DHT22;24220;48.168;14.024;2023-07-09T02:25:03;24.40;57.30
38436;DHT22;24220;48.168;14.024;2023-07-09T02:27:38;24.40;57.50
38436;DHT22;24220;48.168;14.024;2023-07-09T02:30:06;24.40;57.60
38436;DHT22;24220;48.168;14.024;2023-07-09T02:32:35;24.30;57.70
38436;DHT22;24220;48.168;14.024;2023-07-09T02:35:02;24.30;57.70
38436;DHT22;24220;48.168;14.024;2023-07-09T02:37:30;24.30;57.90
38436;DHT22;24220;48.168;14.024;2023-07-09T02:39:57;24.20;57.60
38436;DHT22;24220;48.168;14.024;2023-07-09T02:42:24;24.20;57.60
38436;DHT22;24220;48.168;14.024;2023-07-09T02:44:54;24.20;57.90
38436;DHT22;24220;48.168;14.024;2023-07-09T02:47:21;24.10;58.20
38436;DHT22;24220;48.168;14.024;2023-07-09T02:49:49;24.10;58.40
38436;DHT22;24220;48.168;14.024;2023-07-09T02:52:16;24.10;58.20
38436;DHT22;24220;48.168;14.024;2023-07-09T02:54:43;24.10;58.60
38436;DHT22;24220;48.168;14.024;2023-07-09T02:57:11;24.00;58.40
38436;DHT22;24220;48.168;14.024;2023-07-09T02:59:39;24.00;58.60
38436;DHT22;24220;48.168;14.024;2023-07-09T03:02:06;24.00;58.70
38436;DHT22;24220;48.168;14.024;2023-07-09T03:04:37;24.00;58.60
38436;DHT22;24220;48.168;14.024;2023-07-09T03:07:04;23.90;58.80
38436;DHT22;24220;48.168;14.024;2023-07-09T03:09:31;23.90;58.80
38436;DHT22;24220;48.168;14.024;2023-07-09T03:11:59;23.90;59.00
38436;DHT22;24220;48.168;14.024;2023-07-09T03:14:29;23.90;59.20
38436;DHT22;24220;48.168;14.024;2023-07-09T03:16:56;23.80;59.30
38436;DHT22;24220;48.168;14.024;2023-07-09T03:19:23;23.80;59.10
38436;DHT22;24220;48.168;14.024;2023-07-09T03:21:51;23.80;59.20
38436;DHT22;24220;48.168;14.024;2023-07-09T03:24:18;23.70;59.40
38436;DHT22;24220;48.168;14.024;2023-07-09T03:26:47;23.70;59.50
38436;DHT22;24220;48.168;14.024;2023-07-09T03:29:15;23.70;59.60
38436;DHT22;24220;48.168;14.024;2023-07-09T03:31:43;23.70;59.40
38436;DHT22;24220;48.168;14.024;2023-07-09T03:34:10;23.60;59.50
38436;DHT22;24220;48.168;14.024;2023-07-09T03:36:41;23.60;59.50
38436;DHT22;24220;48.168;14.024;2023-07-09T03:39:11;23.60;59.70
38436;DHT22;24220;48.168;14.024;2023-07-09T03:41:38;23.60;59.70
38436;DHT22;24220;48.168;14.024;2023-07-09T03:44:05;23.60;59.80
38436;DHT22;24220;48.168;14.024;2023-07-09T03:46:33;23.60;59.80
38436;DHT22;24220;48.168;14.024;2023-07-09T03:49:00;23.50;59.80
38436;DHT22;24220;48.168;14.024;2023-07-09T03:51:28;23.50;59.80
38436;DHT22;24220;48.168;14.024;2023-07-09T03:53:55;23.50;59.80
38436;DHT22;24220;48.168;14.024;2023-07-09T03:56:22;23.40;59.90
38436;DHT22;24220;48.168;14.024;2023-07-09T03:58:50;23.40;59.80
38436;DHT22;24220;48.168;14.024;2023-07-09T04:01:17;23.40;60.10
38436;DHT22;24220;48.168;14.024;2023-07-09T04:03:45;23.40;60.10
38436;DHT22;24220;48.168;14.024;2023-07-09T04:06:12;23.40;60.30
38436;DHT22;24220;48.168;14.024;2023-07-09T04:08:40;23.30;60.10
38436;DHT22;24220;48.168;14.024;2023-07-09T04:11:10;23.30;60.30
38436;DHT22;24220;48.168;14.024;2023-07-09T04:13:39;23.30;60.60
38436;DHT22;24220;48.168;14.024;2023-07-09T04:16:10;23.30;60.30
38436;DHT22;24220;48.168;14.024;2023-07-09T04:18:40;23.30;60.60
38436;DHT22;24220;48.168;14.024;2023-07-09T04:21:07;23.30;60.60
38436;DHT22;24220;48.168;14.024;2023-07-09T04:23:37;23.30;60.80
38436;DHT22;24220;48.168;14.024;2023-07-09T04:26:05;23.30;60.80
38436;DHT22;24220;48.168;14.024;2023-07-09T04:28:36;23.30;60.90
38436;DHT22;24220;48.168;14.024;2023-07-09T04:31:03;23.30;60.90
38436;DHT22;24220;48.168;14.024;2023-07-09T04:33:31;23.30;61.00
38436;DHT22;24220;48.168;14.024;2023-07-09T04:35:58;23.20;61.10
38436;DHT22;24220;48.168;14.024;2023-07-09T04:38:27;23.20;62.00
38436;DHT22;24220;48.168;14.024;2023-07-09T04:40:55;23.30;61.70
38436;DHT22;24220;48.168;14.024;2023-07-09T04:43:22;23.20;62.00
38436;DHT22;24220;48.168;14.024;2023-07-09T04:45:52;23.20;62.20
38436;DHT22;24220;48.168;14.024;2023-07-09T04:48:21;23.30;62.00
38436;DHT22;24220;48.168;14.024;2023-07-09T04:50:49;23.20;62.50
38436;DHT22;24220;48.168;14.024;2023-07-09T04:53:17;23.20;63.00
38436;DHT22;24220;48.168;14.024;2023-07-09T04:55:45;23.30;62.90
38436;DHT22;24220;48.168;14.024;2023-07-09T04:58:17;23.20;62.60
38436;DHT22;24220;48.168;14.024;2023-07-09T05:00:46;23.20;62.60
38436;DHT22;24220;48.168;14.024;2023-07-09T05:03:16;23.20;63.00
38436;DHT22;24220;48.168;14.024;2023-07-09T05:05:46;23.20;63.10
38436;DHT22;24220;48.168;14.024;2023-07-09T05:08:14;23.20;63.10
38436;DHT22;24220;48.168;14.024;2023-07-09T05:10:45;23.20;62.70
38436;DHT22;24220;48.168;14.024;2023-07-09T05:13:13;23.30;62.80
38436;DHT22;24220;48.168;14.024;2023-07-09T05:15:42;23.20;62.40
38436;DHT22;24220;48.168;14.024;2023-07-09T05:18:13;23.20;62.60
38436;DHT22;24220;48.168;14.024;2023-07-09T05:20:43;23.30;62.60
38436;DHT22;24220;48.168;14.024;2023-07-09T05:23:10;23.30;61.70
38436;DHT22;24220;48.168;14.024;2023-07-09T05:25:38;23.30;62.20
38436;DHT22;24220;48.168;14.024;2023-07-09T05:28:06;23.30;62.20
38436;DHT22;24220;48.168;14.024;2023-07-09T05:30:33;23.30;63.30
38436;DHT22;24220;48.168;14.024;2023-07-09T05:33:01;23.30;63.30
38436;DHT22;24220;48.168;14.024;2023-07-09T05:35:29;23.30;63.40
38436;DHT22;24220;48.168;14.024;2023-07-09T05:37:57;23.30;64.10
38436;DHT22;24220;48.168;14.024;2023-07-09T05:40:25;23.30;64.60
38436;DHT22;24220;48.168;14.024;2023-07-09T05:43:05;23.30;64.70
38436;DHT22;24220;48.168;14.024;2023-07-09T05:45:33;23.30;64.60
38436;DHT22;24220;48.168;14.024;2023-07-09T05:48:01;23.30;64.30
38436;DHT22;24220;48.168;14.024;2023-07-09T05:50:28;23.40;64.40
38436;DHT22;24220;48.168;14.024;2023-07-09T05:52:55;23.40;65.00
38436;DHT22;24220;48.168;14.024;2023-07-09T05:55:23;23.40;64.80
38436;DHT22;24220;48.168;14.024;2023-07-09T05:57:52;23.40;64.70
38436;DHT22;24220;48.168;14.024;2023-07-09T06:00:20;23.40;63.90
38436;DHT22;24220;48.168;14.024;2023-07-09T06:02:47;23.40;63.70
38436;DHT22;24220;48.168;14.024;2023-07-09T06:05:15;23.40;63.10
38436;DHT22;24220;48.168;14.024;2023-07-09T06:07:42;23.40;63.80
38436;DHT22;24220;48.168;14.024;2023-07-09T06:10:10;23.50;64.00
38436;DHT22;24220;48.168;14.024;2023-07-09T06:12:37;23.50;64.50
38436;DHT22;24220;48.168;14.024;2023-07-09T06:15:05;23.60;65.60
38436;DHT22;24220;48.168;14.024;2023-07-09T06:17:33;23.60;65.60
38436;DHT22;24220;48.168;14.024;2023-07-09T06:20:00;23.60;64.50
38436;DHT22;24220;48.168;14.024;2023-07-09T06:22:30;23.70;64.10
38436;DHT22;24220;48.168;14.024;2023-07-09T06:24:57;23.70;63.60
38436;DHT22;24220;48.168;14.024;2023-07-09T06:27:25;23.70;63.60
38436;DHT22;24220;48.168;14.024;2023-07-09T06:29:52;23.80;63.90
38436;DHT22;24220;48.168;14.024;2023-07-09T06:32:22;23.80;63.80
38436;DHT22;24220;48.168;14.024;2023-07-09T06:34:50;23.90;65.10
38436;DHT22;24220;48.168;14.024;2023-07-09T06:37:18;23.90;66.10
38436;DHT22;24220;48.168;14.024;2023-07-09T06:39:45;23.90;64.80
38436;DHT22;24220;48.168;14.024;2023-07-09T06:42:13;24.00;65.10
38436;DHT22;24220;48.168;14.024;2023-07-09T06:44:40;24.00;65.90
38436;DHT22;24220;48.168;14.024;2023-07-09T06:47:07;24.00;64.90
38436;DHT22;24220;48.168;14.024;2023-07-09T06:49:35;24.10;65.40
38436;DHT22;24220;48.168;14.024;2023-07-09T06:52:03;24.10;64.10
38436;DHT22;24220;48.168;14.024;2023-07-09T06:54:30;24.20;63.70
38436;DHT22;24220;48.168;14.024;2023-07-09T06:56:57;24.20;64.50
38436;DHT22;24220;48.168;14.024;2023-07-09T06:59:25;24.20;64.30
38436;DHT22;24220;48.168;14.024;2023-07-09T07:01:53;24.30;63.90
38436;DHT22;24220;48.168;14.024;2023-07-09T07:04:20;24.40;63.70
38436;DHT22;24220;48.168;14.024;2023-07-09T07:06:48;24.40;63.40
38436;DHT22;24220;48.168;14.024;2023-07-09T07:09:17;24.50;63.00
38436;DHT22;24220;48.168;14.024;2023-07-09T07:11:46;24.50;63.10
38436;DHT22;24220;48.168;14.024;2023-07-09T07:14:14;24.60;63.90
38436;DHT22;24220;48.168;14.024;2023-07-09T07:16:44;24.60;63.40
38436;DHT22;24220;48.168;14.024;2023-07-09T07:19:11;24.70;63.60
38436;DHT22;24220;48.168;14.024;2023-07-09T07:21:39;24.70;62.90
38436;DHT22;24220;48.168;14.024;2023-07-09T07:24:09;24.80;62.60
38436;DHT22;24220;48.168;14.024;2023-07-09T07:26:36;24.90;62.90
38436;DHT22;24220;48.168;14.024;2023-07-09T07:29:03;25.00;63.00
38436;DHT22;24220;48.168;14.024;2023-07-09T07:31:31;25.00;62.40
38436;DHT22;24220;48.168;14.024;2023-07-09T07:34:00;25.10;63.20
38436;DHT22;24220;48.168;14.024;2023-07-09T07:36:28;25.10;63.40
38436;DHT22;24220;48.168;14.024;2023-07-09T07:39:01;25.20;62.60
38436;DHT22;24220;48.168;14.024;2023-07-09T07:41:28;25.20;63.30
38436;DHT22;24220;48.168;14.024;2023-07-09T07:43:58;25.40;63.80
38436;DHT22;24220;48.168;14.024;2023-07-09T07:46:28;25.50;63.30
38436;DHT22;24220;48.168;14.024;2023-07-09T07:49:01;25.50;63.10
38436;DHT22;24220;48.168;14.024;2023-07-09T07:51:29;25.70;63.20
38436;DHT22;24220;48.168;14.024;2023-07-09T07:53:58;25.80;62.50
38436;DHT22;24220;48.168;14.024;2023-07-09T07:56:26;25.90;62.60
38436;DHT22;24220;48.168;14.024;2023-07-09T07:58:53;26.00;62.60
38436;DHT22;24220;48.168;14.024;2023-07-09T08:01:21;26.10;62.20
38436;DHT22;24220;48.168;14.024;2023-07-09T08:03:48;26.10;62.20
38436;DHT22;24220;48.168;14.024;2023-07-09T08:06:16;26.20;62.20
38436;DHT22;24220;48.168;14.024;2023-07-09T08:08:43;26.30;61.00
38436;DHT22;24220;48.168;14.024;2023-07-09T08:11:10;26.40;60.80
38436;DHT22;24220;48.168;14.024;2023-07-09T08:13:41;26.40;60.50
38436;DHT22;24220;48.168;14.024;2023-07-09T08:16:08;26.50;60.00
38436;DHT22;24220;48.168;14.024;2023-07-09T08:18:39;26.60;60.40
38436;DHT22;24220;48.168;14.024;2023-07-09T08:21:06;26.60;60.10
38436;DHT22;24220;48.168;14.024;2023-07-09T08:23:34;26.60;60.20
38436;DHT22;24220;48.168;14.024;2023-07-09T08:26:02;26.70;59.70
38436;DHT22;24220;48.168;14.024;2023-07-09T08:28:31;26.80;59.80
38436;DHT22;24220;48.168;14.024;2023-07-09T08:30:59;26.80;59.90
38436;DHT22;24220;48.168;14.024;2023-07-09T08:33:27;26.90;59.30
38436;DHT22;24220;48.168;14.024;2023-07-09T08:35:54;26.90;60.00
38436;DHT22;24220;48.168;14.024;2023-07-09T08:38:22;27.00;60.10
38436;DHT22;24220;48.168;14.024;2023-07-09T08:41:14;27.00;59.70
38436;DHT22;24220;48.168;14.024;2023-07-09T08:44:03;27.10;59.10
38436;DHT22;24220;48.168;14.024;2023-07-09T08:46:59;27.10;59.00
38436;DHT22;24220;48.168;14.024;2023-07-09T08:49:55;27.20;58.00
38436;DHT22;24220;48.168;14.024;2023-07-09T08:52:36;27.20;59.20
38436;DHT22;24220;48.168;14.024;2023-07-09T08:55:11;27.30;59.10
38436;DHT22;24220;48.168;14.024;2023-07-09T08:57:44;27.30;58.80
38436;DHT22;24220;48.168;14.024;2023-07-09T09:01:17;27.40;59.80
38436;DHT22;24220;48.168;14.024;2023-07-09T09:03:47;27.50;59.10
38436;DHT22;24220;48.168;14.024;2023-07-09T09:06:30;27.50;58.60
38436;DHT22;24220;48.168;14.024;2023-07-09T09:14:38;27.70;58.80
38436;DHT22;24220;48.168;14.024;2023-07-09T09:17:18;27.80;58.60
38436;DHT22;24220;48.168;14.024;2023-07-09T09:19:56;27.80;58.80
38436;DHT22;24220;48.168;14.024;2023-07-09T09:27:43;28.10;58.30
38436;DHT22;24220;48.168;14.024;2023-07-09T09:30:18;28.10;57.80
38436;DHT22;24220;48.168;14.024;2023-07-09T09:33:06;28.20;57.90
38436;DHT22;24220;48.168;14.024;2023-07-09T09:35:41;28.30;58.60
38436;DHT22;24220;48.168;14.024;2023-07-09T09:38:17;28.40;58.80
38436;DHT22;24220;48.168;14.024;2023-07-09T09:40:48;28.40;58.10
38436;DHT22;24220;48.168;14.024;2023-07-09T09:43:18;28.50;58.00
38436;DHT22;24220;48.168;14.024;2023-07-09T09:45:47;28.50;58.10
38436;DHT22;24220;48.168;14.024;2023-07-09T09:48:28;28.60;57.90
38436;DHT22;24220;48.168;14.024;2023-07-09T09:50:59;28.70;57.30
38436;DHT22;24220;48.168;14.024;2023-07-09T09:53:38;28.80;57.70
38436;DHT22;24220;48.168;14.024;2023-07-09T09:56:13;28.80;55.10
38436;DHT22;24220;48.168;14.024;2023-07-09T09:58:41;28.90;55.60
38436;DHT22;24220;48.168;14.024;2023-07-09T10:01:15;28.90;54.30
38436;DHT22;24220;48.168;14.024;2023-07-09T10:03:47;29.00;55.60
38436;DHT22;24220;48.168;14.024;2023-07-09T10:06:33;29.10;55.10
38436;DHT22;24220;48.168;14.024;2023-07-09T10:12:01;29.20;54.40
38436;DHT22;24220;48.168;14.024;2023-07-09T10:14:46;29.20;53.00
38436;DHT22;24220;48.168;14.024;2023-07-09T10:20:03;29.40;52.00
38436;DHT22;24220;48.168;14.024;2023-07-09T10:22:46;29.40;51.70
38436;DHT22;24220;48.168;14.024;2023-07-09T10:39:02;29.90;53.10
38436;DHT22;24220;48.168;14.024;2023-07-09T10:41:35;30.00;50.90
38436;DHT22;24220;48.168;14.024;2023-07-09T10:44:11;30.10;51.10
38436;DHT22;24220;48.168;14.024;2023-07-09T10:46:47;30.10;49.60
38436;DHT22;24220;48.168;14.024;2023-07-09T10:49:17;30.20;51.00
38436;DHT22;24220;48.168;14.024;2023-07-09T10:52:04;30.30;52.60
38436;DHT22;24220;48.168;14.024;2023-07-09T10:54:44;30.30;52.20
38436;DHT22;24220;48.168;14.024;2023-07-09T10:57:22;30.50;52.40
38436;DHT22;24220;48.168;14.024;2023-07-09T10:59:53;30.50;50.20
38436;DHT22;24220;48.168;14.024;2023-07-09T11:02:26;30.60;48.90
38436;DHT22;24220;48.168;14.024;2023-07-09T11:04:59;30.70;48.00
38436;DHT22;24220;48.168;14.024;2023-07-09T11:10:19;30.90;47.50
38436;DHT22;24220;48.168;14.024;2023-07-09T11:12:59;30.90;45.60
38436;DHT22;24220;48.168;14.024;2023-07-09T11:15:33;31.00;45.10
38436;DHT22;24220;48.168;14.024;2023-07-09T11:18:06;31.10;45.30
38436;DHT22;24220;48.168;14.024;2023-07-09T11:20:36;31.10;45.30
38436;DHT22;24220;48.168;14.024;2023-07-09T11:23:23;31.20;44.60
38436;DHT22;24220;48.168;14.024;2023-07-09T11:26:15;31.20;45.40
38436;DHT22;24220;48.168;14.024;2023-07-09T11:36:59;31.60;47.40
38436;DHT22;24220;48.168;14.024;2023-07-09T11:47:36;32.00;48.00
38436;DHT22;24220;48.168;14.024;2023-07-09T11:53:02;32.10;45.20
38436;DHT22;24220;48.168;14.024;2023-07-09T11:55:44;32.20;45.00
38436;DHT22;24220;48.168;14.024;2023-07-09T11:58:16;32.20;46.60
38436;DHT22;24220;48.168;14.024;2023-07-09T12:00:46;32.30;45.20
38436;DHT22;24220;48.168;14.024;2023-07-09T12:03:29;32.50;45.10
38436;DHT22;24220;48.168;14.024;2023-07-09T12:06:01;32.50;44.00
38436;DHT22;24220;48.168;14.024;2023-07-09T12:08:38;32.60;43.50
38436;DHT22;24220;48.168;14.024;2023-07-09T12:11:42;32.70;42.20
38436;DHT22;24220;48.168;14.024;2023-07-09T12:14:16;32.80;42.70
38436;DHT22;24220;48.168;14.024;2023-07-09T12:16:49;32.90;42.80
38436;DHT22;24220;48.168;14.024;2023-07-09T12:19:22;33.00;43.30
38436;DHT22;24220;48.168;14.024;2023-07-09T12:21:56;33.10;42.10
38436;DHT22;24220;48.168;14.024;2023-07-09T12:24:26;33.20;39.80
38436;DHT22;24220;48.168;14.024;2023-07-09T12:27:02;33.30;40.30
38436;DHT22;24220;48.168;14.024;2023-07-09T12:29:34;33.40;42.30
38436;DHT22;24220;48.168;14.024;2023-07-09T12:32:15;33.50;42.40
38436;DHT22;24220;48.168;14.024;2023-07-09T12:34:49;33.60;41.80
38436;DHT22;24220;48.168;14.024;2023-07-09T12:37:20;33.60;40.50
38436;DHT22;24220;48.168;14.024;2023-07-09T12:39:50;33.80;41.10
38436;DHT22;24220;48.168;14.024;2023-07-09T12:42:30;33.80;43.20
38436;DHT22;24220;48.168;14.024;2023-07-09T12:45:00;34.00;40.00
38436;DHT22;24220;48.168;14.024;2023-07-09T12:47:31;34.10;39.90
38436;DHT22;24220;48.168;14.024;2023-07-09T12:50:36;34.10;38.70
38436;DHT22;24220;48.168;14.024;2023-07-09T12:53:18;34.20;39.70
38436;DHT22;24220;48.168;14.024;2023-07-09T12:55:48;34.40;40.10
38436;DHT22;24220;48.168;14.024;2023-07-09T12:58:23;34.50;38.60
38436;DHT22;24220;48.168;14.024;2023-07-09T13:00:53;34.60;39.00
38436;DHT22;24220;48.168;14.024;2023-07-09T13:03:31;34.70;39.00
38436;DHT22;24220;48.168;14.024;2023-07-09T13:06:04;34.80;38.50
38436;DHT22;24220;48.168;14.024;2023-07-09T13:08:41;34.90;38.00
38436;DHT22;24220;48.168;14.024;2023-07-09T13:11:18;35.00;37.70
38436;DHT22;24220;48.168;14.024;2023-07-09T13:13:59;35.10;38.90
38436;DHT22;24220;48.168;14.024;2023-07-09T13:16:29;35.10;39.80
38436;DHT22;24220;48.168;14.024;2023-07-09T13:18:59;35.20;38.10
38436;DHT22;24220;48.168;14.024;2023-07-09T13:21:27;35.30;38.60
38436;DHT22;24220;48.168;14.024;2023-07-09T13:23:55;35.40;37.30
38436;DHT22;24220;48.168;14.024;2023-07-09T13:26:22;35.50;36.40
38436;DHT22;24220;48.168;14.024;2023-07-09T13:28:49;35.60;36.20
38436;DHT22;24220;48.168;14.024;2023-07-09T13:31:22;35.60;37.20
38436;DHT22;24220;48.168;14.024;2023-07-09T13:33:54;35.70;36.80
38436;DHT22;24220;48.168;14.024;2023-07-09T13:36:24;35.80;37.70
38436;DHT22;24220;48.168;14.024;2023-07-09T13:38:52;35.90;37.20
38436;DHT22;24220;48.168;14.024;2023-07-09T13:41:19;36.00;36.40
38436;DHT22;24220;48.168;14.024;2023-07-09T13:43:49;36.10;36.40
38436;DHT22;24220;48.168;14.024;2023-07-09T13:46:17;36.10;36.20
38436;DHT22;24220;48.168;14.024;2023-07-09T13:48:45;36.20;35.40
38436;DHT22;24220;48.168;14.024;2023-07-09T13:51:23;36.20;34.70
38436;DHT22;24220;48.168;14.024;2023-07-09T13:53:53;36.30;35.10
38436;DHT22;24220;48.168;14.024;2023-07-09T13:56:21;36.30;34.80
38436;DHT22;24220;48.168;14.024;2023-07-09T13:58:49;36.30;33.80
38436;DHT22;24220;48.168;14.024;2023-07-09T14:01:21;36.20;35.10
38436;DHT22;24220;48.168;14.024;2023-07-09T14:03:54;36.20;35.60
38436;DHT22;24220;48.168;14.024;2023-07-09T14:06:24;36.20;35.70
38436;DHT22;24220;48.168;14.024;2023-07-09T14:08:51;36.10;35.40
38436;DHT22;24220;48.168;14.024;2023-07-09T14:11:21;36.00;36.20
38436;DHT22;24220;48.168;14.024;2023-07-09T14:13:48;35.90;35.20
38436;DHT22;24220;48.168;14.024;2023-07-09T14:16:22;35.90;35.80
38436;DHT22;24220;48.168;14.024;2023-07-09T14:18:49;35.70;35.40
38436;DHT22;24220;48.168;14.024;2023-07-09T14:21:23;35.60;36.10
38436;DHT22;24220;48.168;14.024;2023-07-09T14:23:52;35.60;35.10
38436;DHT22;24220;48.168;14.024;2023-07-09T14:26:22;35.40;35.60
38436;DHT22;24220;48.168;14.024;2023-07-09T14:28:49;35.40;35.80
38436;DHT22;24220;48.168;14.024;2023-07-09T14:31:26;35.30;36.50
38436;DHT22;24220;48.168;14.024;2023-07-09T14:33:54;35.20;36.20
38436;DHT22;24220;48.168;14.024;2023-07-09T14:36:22;35.20;36.00
38436;DHT22;24220;48.168;14.024;2023-07-09T14:38:50;35.10;35.80
38436;DHT22;24220;48.168;14.024;2023-07-09T14:41:22;35.00;36.00
38436;DHT22;24220;48.168;14.024;2023-07-09T14:43:57;35.00;36.20
38436;DHT22;24220;48.168;14.024;2023-07-09T14:46:25;35.00;37.00
38436;DHT22;24220;48.168;14.024;2023-07-09T14:48:55;34.90;35.90
38436;DHT22;24220;48.168;14.024;2023-07-09T14:51:29;34.90;35.70
38436;DHT22;24220;48.168;14.024;2023-07-09T14:53:56;34.80;36.30
38436;DHT22;24220;48.168;14.024;2023-07-09T14:56:24;34.80;35.60
38436;DHT22;24220;48.168;14.024;2023-07-09T14:58:51;34.70;36.20
38436;DHT22;24220;48.168;14.024;2023-07-09T15:01:18;34.70;35.20
38436;DHT22;24220;48.168;14.024;2023-07-09T15:03:47;34.70;35.70
38436;DHT22;24220;48.168;14.024;2023-07-09T15:06:15;34.70;36.10
38436;DHT22;24220;48.168;14.024;2023-07-09T15:08:42;34.60;35.60
38436;DHT22;24220;48.168;14.024;2023-07-09T15:11:09;34.60;35.50
38436;DHT22;24220;48.168;14.024;2023-07-09T15:13:37;34.60;35.60
38436;DHT22;24220;48.168;14.024;2023-07-09T15:16:07;34.60;35.10
38436;DHT22;24220;48.168;14.024;2023-07-09T15:18:37;34.60;35.40
38436;DHT22;24220;48.168;14.024;2023-07-09T15:21:08;34.60;35.70
38436;DHT22;24220;48.168;14.024;2023-07-09T15:23:42;34.50;35.50
38436;DHT22;24220;48.168;14.024;2023-07-09T15:26:14;34.50;35.60
38436;DHT22;24220;48.168;14.024;2023-07-09T15:28:42;34.50;36.70
38436;DHT22;24220;48.168;14.024;2023-07-09T15:31:11;34.50;37.20
38436;DHT22;24220;48.168;14.024;2023-07-09T15:33:38;34.50;36.70
38436;DHT22;24220;48.168;14.024;2023-07-09T15:36:11;34.40;35.70
38436;DHT22;24220;48.168;14.024;2023-07-09T15:38:41;34.40;35.40
38436;DHT22;24220;48.168;14.024;2023-07-09T15:41:14;34.40;36.60
38436;DHT22;24220;48.168;14.024;2023-07-09T15:43:44;34.40;37.20
38436;DHT22;24220;48.168;14.024;2023-07-09T15:46:20;34.40;37.30
38436;DHT22;24220;48.168;14.024;2023-07-09T15:48:50;34.40;37.90
38436;DHT22;24220;48.168;14.024;2023-07-09T15:51:17;34.30;35.80
38436;DHT22;24220;48.168;14.024;2023-07-09T15:53:45;34.30;35.10
38436;DHT22;24220;48.168;14.024;2023-07-09T15:56:26;34.30;35.80
38436;DHT22;24220;48.168;14.024;2023-07-09T15:58:56;34.30;35.40
38436;DHT22;24220;48.168;14.024;2023-07-09T16:01:24;34.20;36.00
38436;DHT22;24220;48.168;14.024;2023-07-09T16:04:01;34.30;36.60
38436;DHT22;24220;48.168;14.024;2023-07-09T16:06:36;34.20;37.20
38436;DHT22;24220;48.168;14.024;2023-07-09T16:09:25;34.20;36.40
38436;DHT22;24220;48.168;14.024;2023-07-09T16:11:53;34.20;37.10
38436;DHT22;24220;48.168;14.024;2023-07-09T16:14:28;34.20;37.20
38436;DHT22;24220;48.168;14.024;2023-07-09T16:16:58;34.20;37.30
38436;DHT22;24220;48.168;14.024;2023-07-09T16:19:27;34.20;36.90
38436;DHT22;24220;48.168;14.024;2023-07-09T16:22:02;34.10;37.90
38436;DHT22;24220;48.168;14.024;2023-07-09T16:24:32;34.10;38.20
38436;DHT22;24220;48.168;14.024;2023-07-09T16:27:05;34.10;37.60
38436;DHT22;24220;48.168;14.024;2023-07-09T16:29:34;34.10;37.50
38436;DHT22;24220;48.168;14.024;2023-07-09T16:32:02;34.10;37.80
38436;DHT22;24220;48.168;14.024;2023-07-09T16:34:32;34.00;37.50